createdAt,value
2017-12-04T00:01:54.394Z,13.02
2017-12-04T00:04:25.334Z,13.60
2017-12-04T00:07:03.126Z,14.68
2017-12-04T00:09:34.684Z,13.62
2017-12-04T00:12:11.966Z,12.85
2017-12-04T00:14:43.755Z,14.87
2017-12-04T00:17:15.895Z,13.38
2017-12-04T00:19:47.635Z,12.85
2017-12-04T00:22:26.266Z,11.48
2017-12-04T00:24:57.025Z,13.77
2017-12-04T00:27:32.234Z,11.63
2017-12-04T00:30:03.166Z,12.55
2017-12-04T00:32:35.446Z,13.55
2017-12-04T00:35:06.788Z,13.60
2017-12-04T00:37:41.204Z,13.23
2017-12-04T00:40:13.574Z,11.88
2017-12-04T00:42:44.725Z,12.73
2017-12-04T00:45:16.585Z,12.25
2017-12-04T00:47:47.946Z,15.20
2017-12-04T00:50:22.034Z,12.35
2017-12-04T00:53:02.195Z,12.30
2017-12-04T00:55:33.885Z,12.93
2017-12-04T00:58:07.548Z,11.30
2017-12-04T01:17:29.995Z,12.57
2017-12-04T01:20:06.077Z,12.77
2017-12-04T01:22:38.267Z,12.27
2017-12-04T01:25:09.907Z,12.32
2017-12-04T01:27:41.115Z,11.52
2017-12-04T01:30:15.286Z,22.62
2017-12-04T01:32:46.576Z,28.62
2017-12-04T01:35:17.926Z,13.77
2017-12-04T01:37:59.246Z,9.68
2017-12-04T01:40:30.966Z,12.60
2017-12-04T01:43:05.516Z,12.37
2017-12-04T01:45:45.427Z,13.25
2017-12-04T01:48:16.787Z,10.57
2017-12-04T01:50:48.296Z,11.82
2017-12-04T01:53:19.987Z,12.65
2017-12-04T01:55:52.578Z,9.57
2017-12-04T01:58:32.196Z,12.52
2017-12-04T02:01:03.146Z,10.20
2017-12-04T02:03:35.286Z,11.40
2017-12-04T02:06:09.616Z,10.98
2017-12-04T02:08:41.696Z,11.40
2017-12-04T02:11:13.747Z,11.23
2017-12-04T02:13:45.715Z,11.02
2017-12-04T02:16:23.726Z,10.45
2017-12-04T02:18:55.787Z,10.70
2017-12-04T02:21:27.056Z,18.25
2017-12-04T02:24:02.176Z,11.77
2017-12-04T02:26:34.736Z,9.45
2017-12-04T02:29:05.577Z,11.25
2017-12-04T02:31:36.847Z,11.63
2017-12-04T02:34:08.482Z,9.40
2017-12-04T02:36:44.225Z,10.75
2017-12-04T02:39:15.357Z,8.63
2017-12-04T02:41:47.855Z,10.85
2017-12-04T02:44:24.846Z,10.57
2017-12-04T02:46:56.986Z,10.88
2017-12-04T02:49:27.717Z,12.15
2017-12-04T02:52:02.236Z,11.65
2017-12-04T02:54:33.617Z,11.77
2017-12-04T02:57:05.957Z,10.85
2017-12-04T02:59:37.255Z,11.25
2017-12-04T03:02:09.675Z,10.75
2017-12-04T03:04:42.496Z,10.43
2017-12-04T03:07:14.766Z,10.45
2017-12-04T03:09:47.097Z,10.48
2017-12-04T03:12:19.886Z,9.77
2017-12-04T03:14:50.918Z,20.02
2017-12-04T03:17:22.416Z,9.77
2017-12-04T03:19:52.727Z,11.75
2017-12-04T03:22:24.677Z,11.63
2017-12-04T03:24:58.565Z,10.40
2017-12-04T03:27:29.815Z,11.15
2017-12-04T03:30:00.850Z,9.02
2017-12-04T03:32:32.605Z,12.43
2017-12-04T03:35:06.858Z,11.32
2017-12-04T03:37:38.995Z,10.32
2017-12-04T03:40:10.876Z,10.07
2017-12-04T03:42:43.427Z,10.93
2017-12-04T03:45:14.977Z,11.52
2017-12-04T03:47:45.917Z,9.80
2017-12-04T03:50:19.285Z,10.27
2017-12-04T03:52:52.286Z,9.45
2017-12-04T03:55:25.307Z,11.32
2017-12-04T03:57:58.056Z,9.93
2017-12-04T04:00:33.506Z,8.25
2017-12-04T04:03:04.636Z,15.30
2017-12-04T04:05:38.276Z,10.10
2017-12-04T04:08:10.516Z,9.18
2017-12-04T04:10:41.346Z,9.02
2017-12-04T04:13:12.486Z,10.88
2017-12-04T04:15:44.287Z,12.20
2017-12-04T04:18:17.537Z,8.65
2017-12-04T04:20:49.606Z,15.80
2017-12-04T04:23:20.767Z,11.05
2017-12-04T04:25:51.796Z,10.55
2017-12-04T04:28:22.836Z,9.77
2017-12-04T04:30:55.515Z,10.77
2017-12-04T04:33:26.456Z,9.90
2017-12-04T04:35:59.126Z,11.18
2017-12-04T04:38:30.787Z,10.30
2017-12-04T04:41:06.286Z,11.88
2017-12-04T04:43:38.497Z,10.10
2017-12-04T04:46:10.137Z,12.15
2017-12-04T04:48:42.825Z,12.37
2017-12-04T04:51:16.297Z,11.50
2017-12-04T04:53:49.296Z,14.00
2017-12-04T04:56:20.866Z,10.13
2017-12-04T04:58:52.007Z,10.15
2017-12-04T05:01:22.937Z,10.43
2017-12-04T05:03:53.267Z,13.07
2017-12-04T05:06:26.186Z,11.00
2017-12-04T05:08:57.085Z,10.77
2017-12-04T05:11:31.196Z,11.50
2017-12-04T05:14:02.326Z,10.60
2017-12-04T05:16:43.516Z,10.15
2017-12-04T05:19:14.768Z,10.30
2017-12-04T05:21:48.326Z,11.05
2017-12-04T05:24:19.865Z,10.77
2017-12-04T05:26:54.227Z,7.53
2017-12-04T05:29:26.637Z,9.80
2017-12-04T05:31:59.347Z,9.90
2017-12-04T05:34:30.633Z,9.90
2017-12-04T05:37:03.037Z,11.12
2017-12-04T05:39:34.646Z,10.48
2017-12-04T05:42:07.327Z,10.75
2017-12-04T05:44:45.527Z,9.50
2017-12-04T05:47:19.326Z,11.57
2017-12-04T05:49:51.826Z,13.35
2017-12-04T05:52:26.548Z,10.70
2017-12-04T05:54:59.017Z,9.65
2017-12-04T05:57:33.749Z,60.10
2017-12-04T06:00:12.366Z,10.63
2017-12-04T06:02:46.980Z,13.27
2017-12-04T06:05:18.477Z,11.00
2017-12-04T06:07:51.036Z,10.88
2017-12-04T06:10:23.187Z,10.82
2017-12-04T06:12:58.227Z,9.65
2017-12-04T06:15:34.786Z,12.07
2017-12-04T06:18:06.646Z,10.90
2017-12-04T06:20:37.898Z,13.60
2017-12-04T06:23:09.696Z,8.85
2017-12-04T06:25:40.817Z,9.50
2017-12-04T06:28:12.066Z,8.60
2017-12-04T06:30:43.376Z,11.35
2017-12-04T06:33:15.557Z,9.88
2017-12-04T06:35:49.145Z,11.60
2017-12-04T06:38:21.927Z,11.23
2017-12-04T06:40:56.246Z,10.35
2017-12-04T06:43:30.047Z,10.88
2017-12-04T06:46:02.007Z,15.40
2017-12-04T06:48:32.847Z,7.75
2017-12-04T06:51:05.047Z,12.50
2017-12-04T06:53:40.316Z,11.27
2017-12-04T06:56:15.584Z,11.65
2017-12-04T06:58:47.447Z,11.45
2017-12-04T07:01:18.826Z,14.90
2017-12-04T07:03:50.336Z,13.15
2017-12-04T07:06:23.436Z,12.50
2017-12-04T07:08:57.356Z,11.98
2017-12-04T07:11:29.767Z,13.70
2017-12-04T07:14:05.067Z,17.12
2017-12-04T07:16:37.186Z,13.27
2017-12-04T07:19:09.906Z,16.12
2017-12-04T07:21:41.976Z,12.40
2017-12-04T07:24:15.726Z,14.60
2017-12-04T07:26:49.716Z,13.35
2017-12-04T07:29:24.902Z,17.73
2017-12-04T07:31:59.546Z,13.50
2017-12-04T07:34:31.356Z,14.18
2017-12-04T07:37:03.267Z,17.23
2017-12-04T07:39:35.767Z,17.02
2017-12-04T07:42:06.575Z,14.75
2017-12-04T07:44:38.536Z,13.93
2017-12-04T07:47:11.087Z,14.27
2017-12-04T07:49:42.867Z,14.85
2017-12-04T07:52:14.727Z,15.15
2017-12-04T07:54:49.655Z,14.10
2017-12-04T07:57:24.077Z,15.52
2017-12-04T07:59:55.927Z,17.42
2017-12-04T08:02:28.006Z,15.60
2017-12-04T08:04:59.945Z,17.60
2017-12-04T08:07:32.156Z,14.52
2017-12-04T08:10:04.347Z,25.33
2017-12-04T08:12:36.457Z,13.50
2017-12-04T08:15:08.406Z,14.93
2017-12-04T08:17:39.145Z,16.10
2017-12-04T08:20:11.866Z,13.70
2017-12-04T08:22:43.836Z,12.68
2017-12-04T08:25:15.748Z,10.80
2017-12-04T08:27:53.026Z,13.52
2017-12-04T08:30:25.857Z,18.15
2017-12-04T08:32:57.076Z,21.20
2017-12-04T08:35:30.676Z,14.40
2017-12-04T08:38:01.808Z,16.23
2017-12-04T08:40:34.795Z,20.75
2017-12-04T08:43:06.255Z,16.25
2017-12-04T08:45:42.306Z,17.98
2017-12-04T08:48:15.596Z,15.98
2017-12-04T08:50:51.456Z,14.25
2017-12-04T08:53:23.036Z,13.40
2017-12-04T08:55:55.076Z,16.77
2017-12-04T08:58:26.007Z,12.05
2017-12-04T09:00:57.901Z,14.48
2017-12-04T09:03:30.067Z,18.40
2017-12-04T09:06:04.147Z,12.68
2017-12-04T09:08:35.325Z,14.85
2017-12-04T09:11:06.537Z,14.57
2017-12-04T09:13:37.867Z,14.90
2017-12-04T09:16:09.423Z,17.27
2017-12-04T09:18:41.107Z,22.42
2017-12-04T09:21:13.447Z,15.35
2017-12-04T09:23:45.926Z,18.77
2017-12-04T09:26:17.792Z,16.02
2017-12-04T09:28:49.437Z,14.55
2017-12-04T09:31:23.455Z,20.05
2017-12-04T09:33:55.647Z,20.23
2017-12-04T09:36:27.325Z,14.80
2017-12-04T09:39:01.076Z,18.12
2017-12-04T09:41:32.534Z,19.25
2017-12-04T09:44:04.319Z,12.37
2017-12-04T09:46:36.763Z,16.87
2017-12-04T09:49:09.677Z,14.48
2017-12-04T09:51:42.776Z,11.43
2017-12-04T09:54:14.936Z,12.75
2017-12-04T09:56:47.267Z,13.30
2017-12-04T09:59:19.820Z,15.75
2017-12-04T10:01:52.017Z,12.55
2017-12-04T10:04:24.085Z,13.75
2017-12-04T10:06:55.927Z,13.75
2017-12-04T10:09:26.668Z,13.95
2017-12-04T10:11:58.737Z,12.20
2017-12-04T10:14:33.056Z,13.68
2017-12-04T10:17:03.617Z,14.65
2017-12-04T10:19:37.887Z,12.73
2017-12-04T10:22:09.225Z,15.35
2017-12-04T10:24:41.337Z,14.98
2017-12-04T10:27:14.080Z,14.27
2017-12-04T10:29:47.277Z,14.13
2017-12-04T10:32:19.788Z,13.68
2017-12-04T10:34:52.227Z,12.07
2017-12-04T10:37:22.658Z,13.95
2017-12-04T10:39:56.867Z,13.10
2017-12-04T10:42:28.217Z,16.70
2017-12-04T10:44:59.567Z,14.90
2017-12-04T10:47:33.046Z,15.25
2017-12-04T10:50:06.047Z,12.15
2017-12-04T10:52:37.728Z,13.60
2017-12-04T10:55:10.308Z,16.33
2017-12-04T10:57:42.447Z,12.13
2017-12-04T11:00:14.886Z,8.70
2017-12-04T11:02:47.007Z,9.95
2017-12-04T11:05:20.486Z,16.77
2017-12-04T11:07:54.606Z,11.90
2017-12-04T11:10:25.826Z,12.45
2017-12-04T11:12:57.597Z,15.90
2017-12-04T11:15:33.351Z,16.50
2017-12-04T11:18:08.786Z,11.63
2017-12-04T11:20:43.376Z,11.10
2017-12-04T11:23:15.277Z,12.27
2017-12-04T11:25:46.617Z,12.57
2017-12-04T11:28:18.536Z,15.82
2017-12-04T11:30:49.627Z,12.60
2017-12-04T11:33:21.686Z,13.45
2017-12-04T11:35:53.336Z,12.10
2017-12-04T11:38:31.957Z,15.80
2017-12-04T11:41:03.707Z,13.90
2017-12-04T11:43:38.337Z,12.95
2017-12-04T11:46:09.776Z,19.62
2017-12-04T11:48:43.687Z,14.75
2017-12-04T11:51:16.343Z,13.18
2017-12-04T11:53:48.337Z,12.85
2017-12-04T11:56:19.777Z,13.10
2017-12-04T11:58:51.776Z,15.68
2017-12-04T12:01:25.982Z,12.00
2017-12-04T12:03:59.247Z,12.95
2017-12-04T12:06:31.967Z,13.20
2017-12-04T12:09:04.287Z,11.75
2017-12-04T12:11:36.977Z,12.25
2017-12-04T12:14:08.636Z,14.18
2017-12-04T12:16:41.136Z,15.50
2017-12-04T12:19:12.966Z,10.98
2017-12-04T12:21:44.938Z,12.60
2017-12-04T12:24:18.216Z,13.15
2017-12-04T12:26:50.185Z,13.00
2017-12-04T12:29:21.949Z,11.77
2017-12-04T12:31:53.106Z,10.85
2017-12-04T12:34:25.056Z,8.70
2017-12-04T12:36:56.537Z,13.68
2017-12-04T12:39:31.737Z,8.70
2017-12-04T12:42:03.286Z,10.00
2017-12-04T12:44:37.867Z,10.65
2017-12-04T12:47:11.205Z,14.32
2017-12-04T12:49:42.187Z,13.20
2017-12-04T12:52:14.406Z,12.82
2017-12-04T12:54:45.657Z,13.77
2017-12-04T12:57:18.745Z,13.38
2017-12-04T12:59:50.377Z,11.65
2017-12-04T13:02:23.477Z,11.85
2017-12-04T13:04:54.850Z,45.97
2017-12-04T13:07:26.727Z,10.45
2017-12-04T13:09:58.416Z,11.90
2017-12-04T13:12:29.896Z,13.40
2017-12-04T13:15:01.796Z,8.93
2017-12-04T13:17:38.216Z,12.18
2017-12-04T13:20:09.646Z,15.70
2017-12-04T13:22:41.226Z,10.07
2017-12-04T13:25:16.978Z,8.82
2017-12-04T13:27:49.346Z,9.00
2017-12-04T13:30:20.186Z,10.07
2017-12-04T13:33:03.306Z,9.27
2017-12-04T13:35:48.357Z,12.32
2017-12-04T13:38:19.936Z,11.15
2017-12-04T13:40:51.937Z,16.23
2017-12-04T13:43:26.126Z,8.45
2017-12-04T13:45:57.736Z,8.07
2017-12-04T13:48:29.416Z,13.13
2017-12-04T13:51:00.966Z,7.03
2017-12-04T13:53:33.757Z,22.92
2017-12-04T13:56:04.796Z,7.80
2017-12-04T13:58:37.067Z,9.10
2017-12-04T14:01:09.326Z,7.90
2017-12-04T14:03:40.465Z,8.15
2017-12-04T14:06:12.621Z,11.82
2017-12-04T14:08:43.774Z,9.60
2017-12-04T14:11:17.480Z,7.45
2017-12-04T14:13:49.027Z,11.20
2017-12-04T14:16:22.862Z,11.18
2017-12-04T14:18:54.488Z,12.00
2017-12-04T14:21:27.477Z,16.67
2017-12-04T14:24:02.137Z,14.40
2017-12-04T14:26:33.777Z,14.48
2017-12-04T14:29:05.628Z,11.80
2017-12-04T14:31:39.757Z,11.82
2017-12-04T14:34:11.991Z,15.07
2017-12-04T14:36:43.657Z,14.20
2017-12-04T14:39:15.367Z,15.73
2017-12-04T14:41:46.405Z,17.83
2017-12-04T14:44:18.626Z,17.48
2017-12-04T14:46:52.245Z,19.02
2017-12-04T14:49:23.486Z,25.15
2017-12-04T14:52:00.877Z,18.35
2017-12-04T14:54:32.636Z,20.88
2017-12-04T14:57:03.957Z,20.40
2017-12-04T14:59:35.207Z,22.62
2017-12-04T15:02:07.066Z,27.62
2017-12-04T15:04:38.625Z,18.65
2017-12-04T15:07:11.086Z,19.25
2017-12-04T15:09:42.265Z,22.00
2017-12-04T15:12:15.017Z,23.65
2017-12-04T15:14:49.867Z,17.80
2017-12-04T15:17:22.556Z,21.35
2017-12-04T15:19:54.475Z,22.08
2017-12-04T15:22:32.776Z,24.85
2017-12-04T15:25:06.946Z,23.67
2017-12-04T15:27:38.796Z,20.67
2017-12-04T15:30:10.146Z,24.23
2017-12-04T15:32:41.962Z,19.92
2017-12-04T15:35:13.638Z,24.48
2017-12-04T15:37:46.181Z,24.35
2017-12-04T15:40:17.947Z,22.30
2017-12-04T15:42:50.157Z,21.42
2017-12-04T15:45:24.229Z,24.63
2017-12-04T15:47:55.876Z,19.23
2017-12-04T15:50:29.486Z,24.35
2017-12-04T15:53:10.144Z,22.65
2017-12-04T15:55:45.796Z,23.00
2017-12-04T15:58:18.815Z,25.62
2017-12-04T16:00:54.836Z,22.73
2017-12-04T16:03:27.918Z,33.97
2017-12-04T16:05:59.002Z,20.62
2017-12-04T16:08:31.276Z,20.25
2017-12-04T16:11:05.769Z,25.30
2017-12-04T16:13:37.725Z,19.77
2017-12-04T16:16:12.666Z,21.73
2017-12-04T16:18:44.027Z,22.62
2017-12-04T16:21:19.377Z,21.20
2017-12-04T16:23:52.536Z,23.83
2017-12-04T16:26:25.243Z,18.85
2017-12-04T16:28:58.237Z,22.15
2017-12-04T16:31:30.367Z,22.08
2017-12-04T16:34:02.788Z,21.73
2017-12-04T16:36:34.599Z,19.73
2017-12-04T16:39:07.266Z,18.35
2017-12-04T16:41:41.798Z,20.75
2017-12-04T16:44:13.805Z,22.33
2017-12-04T16:46:45.511Z,20.23
2017-12-04T16:49:16.968Z,22.55
2017-12-04T16:51:48.936Z,28.92
2017-12-04T16:54:21.556Z,20.00
2017-12-04T16:56:55.546Z,21.67
2017-12-04T16:59:27.387Z,23.33
2017-12-04T17:02:00.808Z,23.23
2017-12-04T17:04:36.112Z,21.67
2017-12-04T17:07:07.957Z,24.73
2017-12-04T17:09:39.405Z,22.35
2017-12-04T17:12:11.456Z,19.55
2017-12-04T17:17:25.436Z,26.02
2017-12-04T17:20:01.807Z,16.40
2017-12-04T17:22:33.257Z,16.52
2017-12-04T17:25:04.855Z,20.45
2017-12-04T17:27:36.477Z,21.00
2017-12-04T17:30:08.026Z,22.20
2017-12-04T17:32:40.941Z,23.50
2017-12-04T17:35:12.878Z,30.02
2017-12-04T17:37:45.035Z,30.12
2017-12-04T17:40:16.007Z,28.90
2017-12-04T17:42:48.237Z,29.77
2017-12-04T17:45:22.386Z,29.08
2017-12-04T17:47:54.506Z,28.12
2017-12-04T17:50:27.097Z,27.37
2017-12-04T17:53:01.926Z,26.73
2017-12-04T17:55:33.246Z,27.75
2017-12-04T17:58:05.135Z,25.08
2017-12-04T18:00:37.533Z,26.20
2017-12-04T18:03:12.116Z,22.35
2017-12-04T18:05:45.626Z,23.90
2017-12-04T18:08:17.447Z,23.60
2017-12-04T18:10:50.047Z,23.83
2017-12-04T18:13:25.495Z,19.73
2017-12-04T18:15:57.866Z,24.85
2017-12-04T18:18:29.146Z,22.90
2017-12-04T18:21:03.827Z,23.62
2017-12-04T18:23:35.598Z,23.58
2017-12-04T18:26:09.817Z,23.55
2017-12-04T18:28:41.047Z,20.92
2017-12-04T18:31:13.427Z,22.20
2017-12-04T18:33:46.917Z,25.08
2017-12-04T18:36:18.305Z,25.67
2017-12-04T18:38:53.347Z,26.90
2017-12-04T18:41:24.416Z,20.80
2017-12-04T18:43:55.805Z,25.48
2017-12-04T18:46:27.910Z,20.80
2017-12-04T18:49:10.195Z,19.62
2017-12-04T18:51:42.647Z,24.52
2017-12-04T18:54:14.197Z,26.10
2017-12-04T18:56:46.289Z,21.33
2017-12-04T18:59:16.896Z,26.35
2017-12-04T19:01:49.046Z,25.33
2017-12-04T19:04:23.777Z,21.85
2017-12-04T19:06:55.466Z,23.30
2017-12-04T19:09:28.925Z,21.98
2017-12-04T19:12:00.417Z,23.85
2017-12-04T19:14:34.797Z,19.87
2017-12-04T19:17:07.477Z,21.08
2017-12-04T19:19:40.417Z,20.58
2017-12-04T19:22:14.917Z,22.55
2017-12-04T19:24:48.737Z,19.42
2017-12-04T19:27:19.767Z,18.55
2017-12-04T19:29:53.057Z,20.77
2017-12-04T19:32:23.467Z,18.87
2017-12-04T19:34:56.017Z,21.80
2017-12-04T19:37:29.437Z,25.17
2017-12-04T19:40:03.528Z,25.40
2017-12-04T19:42:37.167Z,18.50
2017-12-04T19:45:11.407Z,22.52
2017-12-04T19:47:48.827Z,27.48
2017-12-04T19:50:22.337Z,25.92
2017-12-04T19:52:55.016Z,26.33
2017-12-04T19:55:27.176Z,27.80
2017-12-04T19:57:59.587Z,27.08
2017-12-04T20:00:31.427Z,25.10
2017-12-04T20:03:03.625Z,17.67
2017-12-04T20:05:35.036Z,12.93
2017-12-04T20:08:06.987Z,13.60
2017-12-04T20:10:41.517Z,12.00
2017-12-04T20:13:15.207Z,10.65
2017-12-04T20:15:47.691Z,13.13
2017-12-04T20:18:18.977Z,9.80
2017-12-04T20:20:50.696Z,11.23
2017-12-04T20:23:25.837Z,10.15
2017-12-04T20:25:58.608Z,12.65
2017-12-04T20:28:29.698Z,14.13
2017-12-04T20:31:01.710Z,16.33
2017-12-04T20:33:33.577Z,13.18
2017-12-04T20:36:06.067Z,13.98
2017-12-04T20:38:40.447Z,12.68
2017-12-04T20:41:12.017Z,12.35
2017-12-04T20:43:44.087Z,12.88
2017-12-04T20:46:17.056Z,12.70
2017-12-04T20:48:50.877Z,14.27
2017-12-04T20:51:22.528Z,13.57
2017-12-04T20:53:54.705Z,13.88
2017-12-04T20:56:25.217Z,17.35
2017-12-04T20:58:57.397Z,16.27
2017-12-04T21:01:32.007Z,18.17
2017-12-04T21:04:03.977Z,27.87
2017-12-04T21:06:35.016Z,23.17
2017-12-04T21:09:18.547Z,21.45
2017-12-04T21:11:52.907Z,24.15
2017-12-04T21:14:35.896Z,26.90
2017-12-04T21:17:19.126Z,23.75
2017-12-04T21:19:51.933Z,24.33
2017-12-04T21:22:23.867Z,24.65
2017-12-04T21:24:55.917Z,21.75
2017-12-04T21:27:28.017Z,20.58
2017-12-04T21:30:02.096Z,24.77
2017-12-04T21:32:33.746Z,21.95
2017-12-04T21:35:05.808Z,22.98
2017-12-04T21:37:40.646Z,22.48
2017-12-04T21:40:14.555Z,22.95
2017-12-04T21:42:45.906Z,25.65
2017-12-04T21:45:19.467Z,23.50
2017-12-04T21:47:52.007Z,21.65
2017-12-04T21:50:23.427Z,18.40
2017-12-04T21:52:57.845Z,23.48
2017-12-04T21:55:28.915Z,20.70
2017-12-04T21:58:00.416Z,20.95
2017-12-04T22:00:32.457Z,19.33
2017-12-04T22:03:04.456Z,24.33
2017-12-04T22:05:35.587Z,20.77
2017-12-04T22:08:07.757Z,14.40
2017-12-04T22:10:42.175Z,12.40
2017-12-04T22:13:15.367Z,19.55
2017-12-04T22:15:46.486Z,12.85
2017-12-04T22:18:24.417Z,17.15
2017-12-04T22:20:55.396Z,19.95
2017-12-04T22:23:27.837Z,20.62
2017-12-04T22:25:59.397Z,17.15
2017-12-04T22:28:31.246Z,13.77
2017-12-04T22:31:03.206Z,14.48
2017-12-04T22:33:41.007Z,13.93
2017-12-04T22:36:13.485Z,13.02
2017-12-04T22:38:44.416Z,12.00
2017-12-04T22:41:16.896Z,14.48
2017-12-04T22:43:49.165Z,17.20
2017-12-04T22:46:20.707Z,18.23
2017-12-04T22:48:55.355Z,18.27
2017-12-04T22:51:26.676Z,13.60
2017-12-04T22:53:58.426Z,13.05
2017-12-04T22:56:29.277Z,14.63
2017-12-04T22:59:02.567Z,12.77
2017-12-04T23:01:34.836Z,17.40
2017-12-04T23:04:07.616Z,21.17
2017-12-04T23:06:39.266Z,21.17
2017-12-04T23:09:09.388Z,17.50
2017-12-04T23:11:44.428Z,17.58
2017-12-04T23:14:15.866Z,19.10
2017-12-04T23:16:50.736Z,18.80
2017-12-04T23:19:26.436Z,23.30
2017-12-04T23:21:57.396Z,20.08
2017-12-04T23:24:30.577Z,20.52
2017-12-04T23:27:02.446Z,19.15
2017-12-04T23:29:43.717Z,17.75
2017-12-04T23:32:15.975Z,17.77
2017-12-04T23:34:47.425Z,17.80
2017-12-04T23:37:20.316Z,19.75
2017-12-04T23:39:53.107Z,19.08
2017-12-04T23:42:29.296Z,19.85
2017-12-04T23:45:00.137Z,23.30
2017-12-04T23:47:31.697Z,20.55
2017-12-04T23:50:02.446Z,17.77
2017-12-04T23:52:34.666Z,18.45
2017-12-04T23:55:07.525Z,18.75
2017-12-04T23:57:41.857Z,17.95
